Time;durP1;ratioP1;P1;durP2;ratioP2;P2;SDS_P1;SDS_P2;PMS_P1;PMS_P2;Temp;Humidity;BMP_temperature;BMP_pressure;BME280_temperature;BME280_humidity;BME280_pressure;Samples;Min_cycle;Max_cycle;Signal;HPM_P1;HPM_P2
2024/03/17 00:00:54;;;;;;;2.97;1.70;;;9.40;99.90;;;;;;5030354;28;20289;-61
2024/03/17 00:03:19;;;;;;;1.53;1.43;;;9.50;99.90;;;;;;5029082;28;20225;-61
2024/03/17 00:05:47;;;;;;;1.57;1.43;;;9.50;99.90;;;;;;5033888;28;20720;-61
2024/03/17 00:08:15;;;;;;;2.40;1.30;;;9.50;99.90;;;;;;5032240;28;20244;-61
2024/03/17 00:10:42;;;;;;;1.13;1.13;;;9.40;99.90;;;;;;5033987;28;20258;-61
2024/03/17 00:13:08;;;;;;;1.03;1.03;;;9.30;99.90;;;;;;5023537;28;20230;-61
2024/03/17 00:15:34;;;;;;;0.67;0.67;;;9.30;99.90;;;;;;5014028;28;20201;-61
2024/03/17 00:18:01;;;;;;;2.57;1.00;;;9.30;99.90;;;;;;5015230;28;20285;-61
2024/03/17 00:20:28;;;;;;;2.20;1.00;;;9.30;99.90;;;;;;5032800;28;20200;-61
2024/03/17 00:22:54;;;;;;;1.40;1.30;;;9.40;99.90;;;;;;5033395;28;20237;-61
2024/03/17 00:25:23;;;;;;;1.10;1.10;;;9.30;99.90;;;;;;5033802;28;20281;-61
2024/03/17 00:27:50;;;;;;;0.97;0.97;;;9.40;99.90;;;;;;5032940;28;20209;-61
2024/03/17 00:30:18;;;;;;;1.50;1.47;;;9.30;99.90;;;;;;5023616;28;20569;-61
2024/03/17 00:32:47;;;;;;;1.33;1.17;;;9.30;99.90;;;;;;5033379;28;20225;-61
2024/03/17 00:35:20;;;;;;;1.20;1.20;;;9.20;99.90;;;;;;5033450;28;20198;-61
2024/03/17 00:37:47;;;;;;;2.67;1.20;;;9.20;99.90;;;;;;5030553;28;20654;-61
2024/03/17 00:40:13;;;;;;;1.10;1.10;;;9.20;99.90;;;;;;5032248;28;20282;-61
2024/03/17 00:42:41;;;;;;;2.30;0.93;;;9.20;99.90;;;;;;5033141;28;20228;-61
2024/03/17 00:45:09;;;;;;;0.70;0.70;;;9.20;99.90;;;;;;5032742;28;20235;-61
2024/03/17 00:47:35;;;;;;;1.07;0.87;;;9.20;99.90;;;;;;5032136;28;20676;-61
2024/03/17 00:50:04;;;;;;;1.27;1.17;;;9.20;99.90;;;;;;5032249;28;20194;-61
2024/03/17 00:52:30;;;;;;;1.10;1.10;;;9.20;99.90;;;;;;5033122;28;20239;-61
2024/03/17 00:54:57;;;;;;;1.00;1.00;;;9.20;99.90;;;;;;5033173;28;20295;-61
2024/03/17 00:57:23;;;;;;;4.07;0.97;;;9.20;99.90;;;;;;5030180;28;20668;-61
2024/03/17 00:59:52;;;;;;;1.30;1.20;;;9.20;99.90;;;;;;5032104;28;20246;-61
2024/03/17 01:02:18;;;;;;;3.13;1.80;;;9.20;99.90;;;;;;5024114;28;20261;-61
2024/03/17 01:04:46;;;;;;;2.47;2.27;;;9.20;99.90;;;;;;5032054;28;20224;-61
2024/03/17 01:07:12;;;;;;;3.57;3.20;;;9.20;99.90;;;;;;5030265;28;20204;-61
2024/03/17 01:09:39;;;;;;;3.00;2.90;;;9.10;99.90;;;;;;5028746;28;20197;-61
2024/03/17 01:12:05;;;;;;;2.87;2.60;;;9.20;99.90;;;;;;5032516;28;20739;-61
2024/03/17 01:14:33;;;;;;;2.57;2.47;;;9.20;99.90;;;;;;5030685;28;20201;-61
2024/03/17 01:17:02;;;;;;;2.67;2.00;;;9.20;99.90;;;;;;5031811;28;20213;-61
2024/03/17 01:19:28;;;;;;;2.33;2.23;;;9.20;99.90;;;;;;5027057;28;20672;-61
2024/03/17 01:21:54;;;;;;;2.17;2.03;;;9.20;99.90;;;;;;5032224;28;20221;-61
2024/03/17 01:24:22;;;;;;;2.50;2.30;;;9.20;99.90;;;;;;5032566;28;20267;-61
2024/03/17 01:26:49;;;;;;;2.20;2.10;;;9.20;99.90;;;;;;5031855;28;20212;-61
2024/03/17 01:29:16;;;;;;;3.13;2.10;;;9.30;99.90;;;;;;5032542;28;20199;-61
2024/03/17 01:31:42;;;;;;;2.17;1.83;;;9.30;99.90;;;;;;5031278;28;20271;-61
2024/03/17 01:34:11;;;;;;;1.60;1.50;;;9.30;99.90;;;;;;5032241;28;20668;-61
2024/03/17 01:36:37;;;;;;;2.47;1.20;;;9.30;99.90;;;;;;5011959;28;20263;-61
2024/03/17 01:39:05;;;;;;;1.43;1.30;;;9.30;99.90;;;;;;5024225;28;20196;-61
2024/03/17 01:41:31;;;;;;;1.43;1.33;;;9.30;99.90;;;;;;5032078;28;20217;-61
2024/03/17 01:43:58;;;;;;;2.03;1.13;;;9.30;99.90;;;;;;5031166;28;20279;-61
2024/03/17 01:46:25;;;;;;;3.43;1.50;;;9.30;99.90;;;;;;5031211;28;20193;-61
2024/03/17 01:48:52;;;;;;;2.70;2.10;;;9.20;99.90;;;;;;5032133;28;20201;-61
2024/03/17 01:51:19;;;;;;;1.40;1.30;;;9.20;99.90;;;;;;5028507;28;20202;-61
2024/03/17 01:53:47;;;;;;;2.40;1.50;;;9.20;99.90;;;;;;5020964;28;20585;-61
2024/03/17 01:56:15;;;;;;;1.20;1.20;;;9.10;99.90;;;;;;5028307;28;20208;-61
2024/03/17 01:58:45;;;;;;;1.10;1.10;;;9.00;99.90;;;;;;5031526;28;20214;-61
2024/03/17 02:01:14;;;;;;;1.43;1.20;;;9.00;99.90;;;;;;5031825;28;20205;-61
2024/03/17 02:03:41;;;;;;;1.13;1.10;;;9.00;99.90;;;;;;5031662;28;20758;-61
2024/03/17 02:06:09;;;;;;;1.20;1.10;;;9.00;99.90;;;;;;5031250;28;20212;-61
2024/03/17 02:08:49;;;;;;;1.30;1.17;;;9.10;99.90;;;;;;5025181;28;20281;-61
2024/03/17 02:11:25;;;;;;;1.67;1.57;;;9.10;99.90;;;;;;5030494;28;20686;-61
2024/03/17 02:13:52;;;;;;;1.33;1.23;;;9.10;99.90;;;;;;5029871;28;20653;-61
2024/03/17 02:16:19;;;;;;;1.50;1.40;;;9.10;99.90;;;;;;5030790;28;20228;-61
2024/03/17 02:18:46;;;;;;;1.50;1.40;;;9.00;99.90;;;;;;5024937;28;20231;-61
2024/03/17 02:21:13;;;;;;;4.10;1.60;;;9.00;99.90;;;;;;5030290;28;20204;-61
2024/03/17 02:23:41;;;;;;;2.70;1.20;;;9.00;99.90;;;;;;5031166;28;20220;-61
2024/03/17 02:26:07;;;;;;;2.80;1.33;;;9.00;99.90;;;;;;5030796;28;20670;-61
2024/03/17 02:28:40;;;;;;;1.67;1.57;;;8.90;99.90;;;;;;5031897;28;20250;-61
2024/03/17 02:31:08;;;;;;;3.03;1.57;;;8.80;99.90;;;;;;5031086;28;20207;-61
2024/03/17 02:33:35;;;;;;;2.37;2.17;;;8.70;99.90;;;;;;5030949;28;20212;-61
2024/03/17 02:36:03;;;;;;;1.70;1.60;;;8.60;99.90;;;;;;5030816;28;20204;-61
2024/03/17 02:41:16;;;;;;;2.10;2.00;;;8.50;99.90;;;;;;5029592;28;20216;-61
2024/03/17 02:43:43;;;;;;;3.13;2.60;;;8.40;99.90;;;;;;5030620;28;20220;-61
2024/03/17 02:46:12;;;;;;;2.53;2.43;;;8.40;99.90;;;;;;5030507;28;20328;-61
2024/03/17 02:48:44;;;;;;;1.77;1.67;;;8.40;99.90;;;;;;5031001;28;20616;-61
2024/03/17 02:51:12;;;;;;;2.93;2.40;;;8.40;99.90;;;;;;5031552;28;20303;-61
2024/03/17 02:53:40;;;;;;;2.63;2.40;;;8.40;99.90;;;;;;5031377;28;20309;-61
2024/03/17 02:56:07;;;;;;;3.17;2.37;;;8.40;99.90;;;;;;5032520;28;20778;-61
2024/03/17 02:58:36;;;;;;;2.20;2.10;;;8.30;99.90;;;;;;5024174;28;20231;-61
2024/03/17 03:01:04;;;;;;;3.20;3.00;;;8.30;99.90;;;;;;5031277;28;20296;-61
2024/03/17 03:03:31;;;;;;;3.57;3.27;;;8.40;99.90;;;;;;5031189;28;20266;-61
2024/03/17 03:05:58;;;;;;;5.13;3.83;;;8.30;99.90;;;;;;5030430;28;20204;-61
2024/03/17 03:08:26;;;;;;;4.13;3.13;;;8.30;99.90;;;;;;5031483;28;20208;-61
2024/03/17 03:10:52;;;;;;;3.60;3.30;;;8.30;99.90;;;;;;5030193;28;20205;-61
2024/03/17 03:13:20;;;;;;;3.40;3.20;;;8.30;99.90;;;;;;5029054;28;20807;-61
2024/03/17 03:15:49;;;;;;;3.43;3.27;;;8.30;99.90;;;;;;5033615;28;20297;-61
2024/03/17 03:18:16;;;;;;;3.03;2.77;;;8.30;99.90;;;;;;5019203;28;20617;-61
2024/03/17 03:20:43;;;;;;;3.33;3.00;;;8.30;99.90;;;;;;5030971;28;20724;-61
2024/03/17 03:23:11;;;;;;;2.30;2.20;;;8.20;99.90;;;;;;5029657;28;20259;-61
2024/03/17 03:25:38;;;;;;;3.83;2.70;;;8.20;99.90;;;;;;5030170;28;20708;-61
2024/03/17 03:28:05;;;;;;;4.10;2.93;;;8.10;99.90;;;;;;5031094;28;20204;-61
2024/03/17 03:30:37;;;;;;;2.93;2.73;;;;;;;;;;5034069;28;20202;-61
2024/03/17 03:33:06;;;;;;;5.00;2.60;;;8.10;99.90;;;;;;5034947;28;20256;-61
2024/03/17 03:35:33;;;;;;;1.77;1.67;;;8.10;99.90;;;;;;5033667;28;20686;-61
2024/03/17 03:38:00;;;;;;;2.97;1.93;;;8.00;99.90;;;;;;5032066;28;20855;-61
2024/03/17 03:40:28;;;;;;;2.23;2.13;;;8.00;99.90;;;;;;5027258;28;20204;-61
2024/03/17 03:42:54;;;;;;;2.37;1.87;;;8.00;99.90;;;;;;5034218;28;20867;-61
2024/03/17 03:45:21;;;;;;;1.60;1.60;;;8.00;99.90;;;;;;5034863;28;20249;-61
2024/03/17 03:47:48;;;;;;;1.10;1.10;;;7.90;99.90;;;;;;5032930;28;20198;-61
2024/03/17 03:50:21;;;;;;;1.13;1.03;;;7.90;99.90;;;;;;5034259;28;20682;-61
2024/03/17 03:52:49;;;;;;;1.30;1.20;;;7.90;99.90;;;;;;5034231;28;20236;-61
2024/03/17 03:55:17;;;;;;;1.63;1.53;;;7.90;99.90;;;;;;5036686;28;20199;-61
2024/03/17 03:57:52;;;;;;;1.60;1.50;;;7.90;99.90;;;;;;5021962;28;20197;-61
2024/03/17 04:00:21;;;;;;;1.00;1.00;;;8.00;99.90;;;;;;5033429;28;20199;-61
2024/03/17 04:02:49;;;;;;;0.90;0.90;;;8.10;99.90;;;;;;5033736;28;20692;-61
2024/03/17 04:05:18;;;;;;;1.33;1.23;;;8.10;99.90;;;;;;5033253;28;20347;-61
2024/03/17 04:07:48;;;;;;;1.20;1.10;;;8.10;99.90;;;;;;5033173;28;20197;-61
2024/03/17 04:10:18;;;;;;;1.30;1.23;;;8.00;99.90;;;;;;5034165;28;20205;-61
2024/03/17 04:12:45;;;;;;;1.80;1.70;;;8.00;99.90;;;;;;5025413;28;20213;-61
2024/03/17 04:15:12;;;;;;;1.60;1.50;;;7.90;99.90;;;;;;5016946;28;20260;-61
2024/03/17 04:17:43;;;;;;;1.20;1.20;;;7.80;99.90;;;;;;5013114;28;20200;-61
2024/03/17 04:20:13;;;;;;;1.27;1.27;;;7.80;99.90;;;;;;5024367;28;20228;-62
2024/03/17 04:22:45;;;;;;;3.23;1.40;;;7.80;99.90;;;;;;5027762;28;20229;-61
2024/03/17 04:25:14;;;;;;;2.10;1.40;;;7.70;99.90;;;;;;5033908;28;20314;-61
2024/03/17 04:27:41;;;;;;;1.20;1.20;;;7.70;99.90;;;;;;5032986;28;20591;-61
2024/03/17 04:30:11;;;;;;;1.80;1.67;;;7.60;99.90;;;;;;5028448;28;20675;-61
2024/03/17 04:32:38;;;;;;;1.27;1.17;;;7.50;99.90;;;;;;5033436;28;20303;-61
2024/03/17 04:35:06;;;;;;;1.30;1.30;;;7.50;99.90;;;;;;5033229;28;20761;-61
2024/03/17 04:37:38;;;;;;;1.33;1.20;;;7.40;99.90;;;;;;5030639;28;20706;-61
2024/03/17 04:40:10;;;;;;;3.43;1.23;;;7.40;99.90;;;;;;5033551;28;20204;-61
2024/03/17 04:42:38;;;;;;;3.37;1.43;;;7.40;99.90;;;;;;5031163;28;20270;-61
2024/03/17 04:45:09;;;;;;;1.73;1.63;;;7.30;99.90;;;;;;5033122;28;20314;-61
2024/03/17 04:47:37;;;;;;;1.30;1.13;;;7.30;99.90;;;;;;5013648;28;20692;-61
2024/03/17 04:50:04;;;;;;;2.73;2.63;;;7.20;99.90;;;;;;5013459;28;20210;-61
2024/03/17 04:52:31;;;;;;;6.20;4.43;;;7.20;99.90;;;;;;5022258;28;20311;-61
2024/03/17 04:54:58;;;;;;;2.67;2.37;;;7.20;99.90;;;;;;5029939;28;20675;-61
2024/03/17 04:57:27;;;;;;;1.77;1.67;;;7.10;99.90;;;;;;5030021;28;20622;-61
2024/03/17 04:59:54;;;;;;;1.67;1.57;;;7.10;99.90;;;;;;5024320;28;20258;-61
2024/03/17 05:02:22;;;;;;;1.57;1.47;;;7.10;99.90;;;;;;5026643;28;20224;-61
2024/03/17 05:04:49;;;;;;;1.87;1.77;;;7.00;99.90;;;;;;5025090;28;20586;-61
2024/03/17 05:07:17;;;;;;;5.70;1.80;;;7.00;99.90;;;;;;5017436;28;20209;-61
2024/03/17 05:09:45;;;;;;;2.03;1.93;;;7.00;99.90;;;;;;5023586;28;20201;-61
2024/03/17 05:12:12;;;;;;;2.10;1.90;;;6.90;99.90;;;;;;5031018;28;20619;-61
2024/03/17 05:14:41;;;;;;;1.90;1.80;;;6.90;99.90;;;;;;5032777;28;20637;-61
2024/03/17 05:17:07;;;;;;;2.13;1.93;;;6.90;99.90;;;;;;5026851;28;20282;-61
2024/03/17 05:19:34;;;;;;;3.97;2.57;;;6.90;99.90;;;;;;5025846;28;20660;-61
2024/03/17 05:22:01;;;;;;;1.60;1.40;;;6.90;99.90;;;;;;5025374;28;20271;-61
2024/03/17 05:24:28;;;;;;;2.40;2.00;;;6.80;99.90;;;;;;5015130;28;20901;-61
2024/03/17 05:26:55;;;;;;;2.20;1.97;;;6.80;99.90;;;;;;5023497;28;20208;-61
2024/03/17 05:29:23;;;;;;;2.57;2.37;;;6.80;99.90;;;;;;5022679;28;20250;-61
2024/03/17 05:31:51;;;;;;;2.50;2.20;;;6.70;99.90;;;;;;5024553;28;20223;-61
2024/03/17 05:34:18;;;;;;;3.03;2.70;;;6.70;99.90;;;;;;5029843;28;20249;-61
2024/03/17 05:36:46;;;;;;;3.33;2.33;;;6.70;99.90;;;;;;5026834;28;20232;-61
2024/03/17 05:39:13;;;;;;;1.87;1.77;;;6.70;99.90;;;;;;5027926;28;20209;-61
2024/03/17 05:41:41;;;;;;;2.03;1.93;;;6.80;99.90;;;;;;5030045;28;20255;-61
2024/03/17 05:44:08;;;;;;;2.23;2.13;;;6.80;99.90;;;;;;5020725;28;20236;-61
2024/03/17 05:46:35;;;;;;;2.87;1.83;;;6.90;99.90;;;;;;5029022;28;20665;-61
2024/03/17 05:49:04;;;;;;;1.97;1.87;;;6.90;99.90;;;;;;5021062;28;20204;-61
2024/03/17 05:51:31;;;;;;;2.60;1.92;;;7.00;99.90;;;;;;5024045;28;21032;-67
2024/03/17 05:53:59;;;;;;;1.87;1.77;;;7.10;99.90;;;;;;5025815;28;20554;-68
2024/03/17 05:56:25;;;;;;;1.60;1.50;;;7.20;99.90;;;;;;5026108;28;20287;-65
2024/03/17 05:58:52;;;;;;;2.17;1.50;;;7.20;99.90;;;;;;5029663;28;20283;-66
2024/03/17 06:01:19;;;;;;;2.20;1.70;;;7.20;99.90;;;;;;5029136;28;20204;-69
2024/03/17 06:03:46;;;;;;;2.50;1.60;;;7.30;99.90;;;;;;5026259;28;20319;-69
2024/03/17 06:06:14;;;;;;;1.97;1.23;;;7.30;99.90;;;;;;5028586;28;20724;-69
2024/03/17 06:08:41;;;;;;;1.03;1.03;;;7.30;99.90;;;;;;5029479;28;20210;-69
2024/03/17 06:11:08;;;;;;;1.40;1.30;;;7.40;99.90;;;;;;5029444;28;20681;-70
2024/03/17 06:13:36;;;;;;;2.70;1.77;;;7.40;99.90;;;;;;5022614;28;20671;-71
2024/03/17 06:16:04;;;;;;;3.70;1.73;;;7.60;99.90;;;;;;5019235;28;20208;-70
2024/03/17 06:18:32;;;;;;;5.40;1.67;;;7.70;99.90;;;;;;5026224;28;20212;-69
2024/03/17 06:20:59;;;;;;;1.83;1.70;;;7.80;99.90;;;;;;5022913;28;20206;-69
2024/03/17 06:23:28;;;;;;;1.40;1.30;;;7.80;99.90;;;;;;5019331;28;20224;-70
2024/03/17 06:25:56;;;;;;;1.73;1.60;;;8.10;99.90;;;;;;5028132;28;20987;-70
2024/03/17 06:28:23;;;;;;;3.70;1.13;;;8.60;99.90;;;;;;5018089;28;20287;-70
2024/03/17 06:30:59;;;;;;;1.03;0.90;;;9.20;99.90;;;;;;5024580;28;20246;-68
2024/03/17 06:33:27;;;;;;;2.03;0.80;;;10.30;99.90;;;;;;5021507;28;20252;-71
2024/03/17 06:35:55;;;;;;;2.17;1.03;;;11.10;99.90;;;;;;5020893;28;20289;-71
2024/03/17 06:38:22;;;;;;;0.93;0.80;;;11.50;99.90;;;;;;5019359;28;21528;-72
2024/03/17 06:40:53;;;;;;;0.73;0.73;;;11.80;99.90;;;;;;5019981;28;20666;-72
2024/03/17 06:43:21;;;;;;;1.27;0.80;;;12.20;99.90;;;;;;5028613;28;20641;-71
2024/03/17 06:45:58;;;;;;;0.90;0.90;;;12.30;99.90;;;;;;5022475;28;20218;-71
2024/03/17 06:48:25;;;;;;;2.03;0.90;;;12.30;99.90;;;;;;5019851;28;20212;-71
2024/03/17 06:50:54;;;;;;;1.97;1.30;;;12.20;99.90;;;;;;5019597;28;20236;-70
2024/03/17 06:53:21;;;;;;;1.70;1.27;;;12.00;99.90;;;;;;5020223;28;20908;-69
2024/03/17 06:55:55;;;;;;;1.10;1.00;;;11.70;99.90;;;;;;5018192;28;20690;-70
2024/03/17 06:58:23;;;;;;;2.60;1.00;;;11.60;99.90;;;;;;5085327;22;20707;-65
2024/03/17 07:00:54;;;;;;;0.60;0.60;;;11.70;99.90;;;;;;5058760;28;20262;-67
2024/03/17 07:03:23;;;;;;;1.10;0.60;;;11.80;99.90;;;;;;5063305;28;20286;-67
2024/03/17 07:05:54;;;;;;;1.27;0.80;;;11.80;99.90;;;;;;5065096;28;20691;-68
2024/03/17 07:08:23;;;;;;;1.53;0.80;;;11.70;99.90;;;;;;5058054;28;20302;-68
2024/03/17 07:11:03;;;;;;;1.60;1.50;;;11.70;99.90;;;;;;5051062;28;20694;-70
2024/03/17 07:13:32;;;;;;;0.93;0.87;;;11.80;99.90;;;;;;5046956;28;20216;-70
2024/03/17 07:15:59;;;;;;;0.53;0.50;;;11.80;99.90;;;;;;5052811;28;20254;-64
2024/03/17 07:18:28;;;;;;;1.67;0.60;;;11.70;99.90;;;;;;5050812;28;20248;-68
2024/03/17 07:20:57;;;;;;;0.33;0.33;;;11.60;99.90;;;;;;5053962;28;20202;-64
2024/03/17 07:23:24;;;;;;;0.30;0.30;;;11.70;99.90;;;;;;5046850;28;20195;-64
2024/03/17 07:25:55;;;;;;;0.57;0.57;;;11.80;99.90;;;;;;5056221;28;20222;-67
2024/03/17 07:28:24;;;;;;;0.50;0.50;;;11.90;99.90;;;;;;5051219;28;20564;-66
2024/03/17 07:30:52;;;;;;;0.60;0.40;;;12.00;99.90;;;;;;5051975;28;20257;-66
2024/03/17 07:33:21;;;;;;;0.70;0.53;;;12.10;99.90;;;;;;5048177;28;20212;-69
2024/03/17 07:35:49;;;;;;;0.43;0.40;;;12.20;99.90;;;;;;5050369;28;20283;-68
2024/03/17 07:38:16;;;;;;;2.53;0.93;;;12.40;99.90;;;;;;5053264;28;20304;-69
2024/03/17 07:40:43;;;;;;;0.30;0.30;;;12.70;99.90;;;;;;5061059;28;20286;-70
2024/03/17 07:43:10;;;;;;;0.40;0.40;;;12.90;99.90;;;;;;5053374;28;20205;-69
2024/03/17 07:45:39;;;;;;;0.83;0.40;;;12.50;99.90;;;;;;5050772;28;20221;-69
2024/03/17 07:48:07;;;;;;;0.30;0.30;;;12.70;99.90;;;;;;5050026;28;21931;-68
2024/03/17 07:50:35;;;;;;;0.60;0.20;;;13.10;99.90;;;;;;5047507;28;20280;-65
2024/03/17 07:53:03;;;;;;;1.70;1.30;;;13.50;99.90;;;;;;5050836;28;20716;-69
2024/03/17 07:55:31;;;;;;;0.73;0.30;;;13.80;99.90;;;;;;5052546;28;20733;-67
2024/03/17 07:57:59;;;;;;;1.23;0.33;;;14.10;99.90;;;;;;5048529;28;20321;-68
2024/03/17 08:00:26;;;;;;;0.23;0.23;;;14.20;99.90;;;;;;5047898;28;20206;-68
2024/03/17 08:02:54;;;;;;;0.50;0.20;;;14.00;99.90;;;;;;5048931;28;20197;-71
2024/03/17 08:05:22;;;;;;;1.80;0.40;;;13.90;99.90;;;;;;5050650;28;20304;-67
2024/03/17 08:07:51;;;;;;;0.27;0.27;;;13.40;99.90;;;;;;5052046;28;20794;-67
2024/03/17 08:10:18;;;;;;;1.37;0.30;;;13.10;99.90;;;;;;5050321;28;20663;-69
2024/03/17 08:12:49;;;;;;;1.13;0.27;;;12.80;99.90;;;;;;5050778;28;20233;-66
2024/03/17 08:15:16;;;;;;;0.50;0.50;;;12.70;99.90;;;;;;5045729;28;20197;-72
2024/03/17 08:17:43;;;;;;;0.97;0.50;;;12.60;99.90;;;;;;5043018;28;20223;-71
2024/03/17 08:20:13;;;;;;;0.30;0.30;;;12.40;99.90;;;;;;5050313;28;20204;-72
2024/03/17 08:22:43;;;;;;;0.53;0.30;;;12.40;99.90;;;;;;5051085;28;20196;-72
2024/03/17 08:25:10;;;;;;;1.40;0.63;;;12.40;99.90;;;;;;5052975;28;20712;-71
2024/03/17 08:27:37;;;;;;;0.70;0.70;;;12.40;99.90;;;;;;5050335;28;20220;-70
2024/03/17 08:30:05;;;;;;;0.70;0.40;;;12.50;99.90;;;;;;5046883;28;20198;-70
2024/03/17 08:32:32;;;;;;;0.60;0.43;;;12.40;99.90;;;;;;5045700;28;20202;-70
2024/03/17 08:34:59;;;;;;;0.43;0.43;;;12.40;99.90;;;;;;5046376;28;20209;-69
2024/03/17 08:37:27;;;;;;;0.73;0.30;;;12.60;99.90;;;;;;5046613;28;20221;-69
2024/03/17 08:39:54;;;;;;;1.23;0.60;;;12.70;99.90;;;;;;5035154;28;20201;-69
2024/03/17 08:42:21;;;;;;;1.13;0.67;;;12.80;99.90;;;;;;5043949;28;20337;-69
2024/03/17 08:44:48;;;;;;;0.40;0.40;;;12.90;99.90;;;;;;5049825;28;20249;-66
2024/03/17 08:47:15;;;;;;;5.73;0.80;;;13.00;99.90;;;;;;5049821;28;20280;-68
2024/03/17 08:49:42;;;;;;;0.50;0.50;;;13.00;99.90;;;;;;5050816;28;20244;-67
2024/03/17 08:52:09;;;;;;;1.03;0.40;;;13.00;99.90;;;;;;5050898;28;20278;-67
2024/03/17 08:54:38;;;;;;;0.70;0.50;;;12.90;99.90;;;;;;5049720;28;20205;-68
2024/03/17 08:57:05;;;;;;;0.50;0.40;;;12.90;99.90;;;;;;5049104;28;20228;-68
2024/03/17 08:59:32;;;;;;;0.60;0.60;;;12.90;99.90;;;;;;5050149;28;20683;-67
2024/03/17 09:01:59;;;;;;;0.73;0.50;;;13.10;99.90;;;;;;5050476;28;20239;-68
2024/03/17 09:04:26;;;;;;;1.80;0.57;;;13.20;99.90;;;;;;5048334;28;21081;-68
2024/03/17 09:06:55;;;;;;;0.50;0.50;;;13.40;99.90;;;;;;5050855;28;20220;-66
2024/03/17 09:09:22;;;;;;;0.43;0.40;;;13.50;99.90;;;;;;5051755;28;20291;-66
2024/03/17 09:11:51;;;;;;;0.53;0.30;;;13.70;99.90;;;;;;5052448;28;20201;-66
2024/03/17 09:14:19;;;;;;;0.40;0.40;;;13.60;99.90;;;;;;5043834;28;20205;-67
2024/03/17 09:16:48;;;;;;;0.40;0.40;;;13.40;99.90;;;;;;5050883;28;20562;-66
2024/03/17 09:19:15;;;;;;;1.57;0.43;;;13.30;99.90;;;;;;5051972;28;20208;-68
2024/03/17 09:21:42;;;;;;;0.30;0.30;;;13.20;99.90;;;;;;5051281;28;20331;-70
2024/03/17 09:24:11;;;;;;;0.60;0.40;;;13.20;99.90;;;;;;5051960;28;20220;-73
2024/03/17 09:26:39;;;;;;;0.90;0.60;;;13.30;99.90;;;;;;5046437;28;20251;-72
2024/03/17 09:29:07;;;;;;;0.63;0.63;;;13.50;99.90;;;;;;5038394;28;20799;-71
2024/03/17 09:31:35;;;;;;;0.57;0.50;;;13.80;99.90;;;;;;5052218;28;20194;-72
2024/03/17 09:34:02;;;;;;;0.50;0.40;;;13.80;99.90;;;;;;5048184;28;20236;-70
2024/03/17 09:36:29;;;;;;;0.50;0.50;;;14.10;99.90;;;;;;5051373;28;20248;-71
2024/03/17 09:38:56;;;;;;;0.63;0.50;;;14.40;99.90;;;;;;5049528;28;20837;-72
2024/03/17 09:41:26;;;;;;;1.27;0.50;;;14.60;99.90;;;;;;5051917;28;20635;-70
2024/03/17 09:43:55;;;;;;;0.40;0.40;;;14.40;99.90;;;;;;5049445;28;20700;-69
2024/03/17 09:46:24;;;;;;;0.87;0.50;;;14.60;99.90;;;;;;5051122;28;20304;-69
2024/03/17 09:48:51;;;;;;;0.40;0.40;;;14.60;99.90;;;;;;5051897;28;20229;-68
2024/03/17 09:51:21;;;;;;;0.87;0.60;;;14.80;99.90;;;;;;5051357;28;20280;-70
2024/03/17 09:53:48;;;;;;;0.70;0.40;;;14.70;99.90;;;;;;5045157;28;20198;-70
2024/03/17 09:56:18;;;;;;;0.57;0.57;;;14.80;99.90;;;;;;5048170;28;20672;-68
2024/03/17 09:58:45;;;;;;;1.23;0.40;;;14.80;99.90;;;;;;5046360;28;20236;-68
2024/03/17 10:01:12;;;;;;;0.83;0.43;;;15.10;99.90;;;;;;5051668;28;20214;-68
2024/03/17 10:03:51;;;;;;;0.70;0.40;;;15.40;99.90;;;;;;5051750;28;20202;-69
2024/03/17 10:06:19;;;;;;;0.20;0.20;;;15.70;99.90;;;;;;5039055;28;21133;-68
2024/03/17 10:08:47;;;;;;;0.30;0.30;;;15.90;99.90;;;;;;5053371;28;20217;-68
2024/03/17 10:11:16;;;;;;;0.30;0.30;;;16.00;99.90;;;;;;5049350;28;20205;-68
2024/03/17 10:13:43;;;;;;;0.30;0.30;;;15.90;99.90;;;;;;5051150;28;20585;-68
2024/03/17 10:16:23;;;;;;;0.73;0.40;;;15.90;99.90;;;;;;5049322;28;20284;-68
2024/03/17 10:18:52;;;;;;;0.50;0.30;;;15.70;99.90;;;;;;5047275;28;20308;-68
2024/03/17 10:21:27;;;;;;;0.30;0.23;;;15.50;99.90;;;;;;5050117;28;20712;-68
2024/03/17 10:24:08;;;;;;;1.37;0.50;;;15.70;99.90;;;;;;5051974;28;20209;-68
2024/03/17 10:26:38;;;;;;;0.40;0.40;;;16.00;99.90;;;;;;5052779;28;20222;-68
2024/03/17 10:29:06;;;;;;;0.73;0.40;;;16.00;99.90;;;;;;5058119;28;20284;-68
2024/03/17 10:31:39;;;;;;;0.60;0.60;;;16.10;99.90;;;;;;5053368;28;20233;-68
2024/03/17 10:34:18;;;;;;;1.17;0.40;;;16.30;99.90;;;;;;5049337;28;20217;-68
2024/03/17 10:36:47;;;;;;;0.40;0.40;;;16.50;99.90;;;;;;5048721;28;20202;-68
2024/03/17 10:39:29;;;;;;;0.30;0.30;;;16.40;99.90;;;;;;5050699;28;20255;-68
2024/03/17 10:42:01;;;;;;;0.93;0.40;;;16.50;99.90;;;;;;5055535;28;20240;-68
2024/03/17 10:44:28;;;;;;;0.30;0.30;;;16.50;99.90;;;;;;5050233;28;20198;-68
2024/03/17 10:46:57;;;;;;;0.40;0.40;;;16.30;99.90;;;;;;5056018;28;20593;-68
2024/03/17 10:49:30;;;;;;;0.30;0.30;;;16.30;99.90;;;;;;5057011;28;20639;-68
2024/03/17 10:52:00;;;;;;;1.77;0.40;;;15.90;99.90;;;;;;5057959;28;20212;-68
2024/03/17 10:54:28;;;;;;;0.70;0.20;;;16.20;99.90;;;;;;5053981;28;20198;-68
2024/03/17 10:56:58;;;;;;;1.67;0.30;;;16.40;99.90;;;;;;5056221;28;20315;-68
2024/03/17 10:59:33;;;;;;;0.50;0.50;;;16.30;99.90;;;;;;5061876;28;20284;-68
2024/03/17 11:02:03;;;;;;;1.00;0.90;;;16.20;99.90;;;;;;5053252;28;20231;-68
2024/03/17 11:04:31;;;;;;;1.27;0.70;;;16.20;99.90;;;;;;5051350;28;20194;-68
2024/03/17 11:07:00;;;;;;;1.60;1.60;;;16.20;99.90;;;;;;5054003;28;20220;-68
2024/03/17 11:09:28;;;;;;;2.80;2.70;;;16.20;99.90;;;;;;5053147;28;20608;-67
2024/03/17 11:11:55;;;;;;;3.37;2.53;;;15.90;99.90;;;;;;5053166;28;20642;-67
2024/03/17 11:14:23;;;;;;;2.20;2.10;;;15.90;99.90;;;;;;5053669;28;20193;-67
2024/03/17 11:16:50;;;;;;;4.60;2.37;;;15.80;99.90;;;;;;5053944;28;20224;-67
2024/03/17 11:19:18;;;;;;;1.90;1.50;;;15.60;99.90;;;;;;5054859;28;20209;-67
2024/03/17 11:21:47;;;;;;;2.70;1.43;;;15.40;99.90;;;;;;5049593;28;20658;-68
2024/03/17 11:24:23;;;;;;;1.73;1.10;;;15.40;99.90;;;;;;5056493;28;20608;-68
2024/03/17 11:26:50;;;;;;;4.77;2.40;;;15.00;99.90;;;;;;5052718;28;20907;-67
2024/03/17 11:29:32;;;;;;;2.10;2.00;;;14.60;99.90;;;;;;5050330;28;20201;-67
2024/03/17 11:31:59;;;;;;;2.33;1.37;;;14.50;99.90;;;;;;5051753;28;20201;-67
2024/03/17 11:34:33;;;;;;;3.27;2.50;;;14.40;99.90;;;;;;5043551;28;20197;-68
2024/03/17 11:37:05;;;;;;;2.77;1.87;;;14.40;99.90;;;;;;5051675;28;20212;-68
2024/03/17 11:39:57;;;;;;;2.37;2.17;;;14.60;99.90;;;;;;5054878;28;20680;-68
2024/03/17 11:42:26;;;;;;;2.07;1.87;;;14.50;99.90;;;;;;5050494;28;20209;-68
2024/03/17 11:45:09;;;;;;;2.37;1.90;;;14.40;99.90;;;;;;5046408;28;20259;-63
2024/03/17 11:47:41;;;;;;;3.47;2.30;;;14.60;99.90;;;;;;5051031;28;20225;-62
2024/03/17 11:50:10;;;;;;;2.20;2.00;;;14.80;99.90;;;;;;5053359;28;20221;-65
2024/03/17 11:52:40;;;;;;;4.93;1.83;;;14.90;99.90;;;;;;5051059;28;20196;-66
2024/03/17 11:55:16;;;;;;;2.00;1.40;;;15.00;99.90;;;;;;5049154;28;20260;-65
2024/03/17 11:57:50;;;;;;;1.43;1.30;;;14.80;99.90;;;;;;5050869;28;20731;-66
2024/03/17 12:00:20;;;;;;;4.60;2.33;;;14.80;99.90;;;;;;5046798;28;20617;-65
2024/03/17 12:02:51;;;;;;;3.50;1.60;;;14.50;99.90;;;;;;5051781;28;20664;-65
2024/03/17 12:05:18;;;;;;;2.13;2.00;;;14.20;99.90;;;;;;5052099;28;20321;-69
2024/03/17 12:07:46;;;;;;;1.93;1.83;;;14.10;99.90;;;;;;5050495;28;20303;-69
2024/03/17 12:10:14;;;;;;;3.17;1.70;;;14.10;99.90;;;;;;5051366;28;20684;-69
2024/03/17 12:12:48;;;;;;;1.57;1.20;;;14.30;99.90;;;;;;5051474;28;20583;-69
2024/03/17 12:15:19;;;;;;;2.73;0.90;;;14.20;99.90;;;;;;5049706;28;20604;-69
2024/03/17 12:17:47;;;;;;;1.30;0.67;;;14.40;99.90;;;;;;5049793;28;20221;-69
2024/03/17 12:20:20;;;;;;;1.60;0.40;;;14.30;99.90;;;;;;5048731;28;20692;-68
2024/03/17 12:22:54;;;;;;;1.37;0.67;;;14.10;99.90;;;;;;5050439;28;20194;-69
2024/03/17 12:25:23;;;;;;;2.37;0.33;;;13.80;99.90;;;;;;5056725;28;20199;-69
2024/03/17 12:27:50;;;;;;;1.30;0.60;;;13.70;99.90;;;;;;5051269;28;20254;-69
2024/03/17 12:30:17;;;;;;;1.50;0.60;;;13.90;99.90;;;;;;5049397;28;20198;-69
2024/03/17 12:32:50;;;;;;;1.80;0.40;;;14.10;99.90;;;;;;5049970;28;20255;-68
2024/03/17 12:35:17;;;;;;;1.90;0.50;;;14.00;99.90;;;;;;5053730;28;20234;-69
2024/03/17 12:37:49;;;;;;;2.10;0.40;;;14.10;99.90;;;;;;5047397;28;20214;-69
2024/03/17 12:40:21;;;;;;;2.63;0.40;;;14.10;99.90;;;;;;5050997;28;20259;-69
2024/03/17 12:42:51;;;;;;;4.77;1.00;;;14.10;99.90;;;;;;5049767;28;20208;-69
2024/03/17 12:45:21;;;;;;;1.10;0.47;;;14.20;99.90;;;;;;5061489;28;20229;-69
2024/03/17 12:47:52;;;;;;;6.80;4.83;;;14.10;99.90;;;;;;5048038;28;20228;-69
2024/03/17 12:50:19;;;;;;;4.73;1.00;;;13.90;99.90;;;;;;5046589;28;20231;-69
2024/03/17 12:52:54;;;;;;;1.87;0.57;;;14.10;99.90;;;;;;5041796;28;20204;-69
2024/03/17 13:00:59;;;;;;;2.80;0.70;;;14.30;99.90;;;;;;5046285;28;20281;-69
2024/03/17 13:03:28;;;;;;;3.37;0.80;;;14.30;99.90;;;;;;5043724;28;20276;-69
2024/03/17 13:05:56;;;;;;;3.17;0.77;;;14.40;99.90;;;;;;5045917;28;20244;-69
2024/03/17 13:08:23;;;;;;;3.60;0.80;;;14.20;99.90;;;;;;5049569;28;20222;-68